sensor_id;sensor_type;location;lat;lon;timestamp;P1;durP1;ratioP1;P2;durP2;ratioP2
56130;SDS011;42000;44.774;20.506;2023-03-01T05:50:52;49.83;;;25.90;;
56130;SDS011;42000;44.774;20.506;2023-03-01T05:53:19;50.22;;;26.08;;
56130;SDS011;42000;44.774;20.506;2023-03-01T05:55:48;52.88;;;26.92;;
56130;SDS011;42000;44.774;20.506;2023-03-01T05:58:15;50.28;;;26.60;;
56130;SDS011;42000;44.774;20.506;2023-03-01T06:00:42;49.00;;;26.92;;
56130;SDS011;42000;44.774;20.506;2023-03-01T06:03:09;49.08;;;26.90;;
56130;SDS011;42000;44.774;20.506;2023-03-01T06:05:36;55.10;;;29.50;;
56130;SDS011;42000;44.774;20.506;2023-03-01T06:08:02;59.38;;;30.83;;
56130;SDS011;42000;44.774;20.506;2023-03-01T06:10:28;56.15;;;29.77;;
56130;SDS011;42000;44.774;20.506;2023-03-01T06:12:55;52.33;;;28.98;;
56130;SDS011;42000;44.774;20.506;2023-03-01T06:15:21;51.42;;;28.38;;
56130;SDS011;42000;44.774;20.506;2023-03-01T06:17:47;52.10;;;28.40;;
56130;SDS011;42000;44.774;20.506;2023-03-01T06:22:41;51.40;;;28.23;;
56130;SDS011;42000;44.774;20.506;2023-03-01T06:25:07;51.20;;;27.35;;
56130;SDS011;42000;44.774;20.506;2023-03-01T06:27:34;54.47;;;29.60;;
56130;SDS011;42000;44.774;20.506;2023-03-01T06:30:00;54.63;;;31.60;;
56130;SDS011;42000;44.774;20.506;2023-03-01T06:32:26;56.38;;;32.88;;
56130;SDS011;42000;44.774;20.506;2023-03-01T06:34:52;56.90;;;31.88;;
56130;SDS011;42000;44.774;20.506;2023-03-01T06:37:18;60.13;;;34.70;;
56130;SDS011;42000;44.774;20.506;2023-03-01T06:39:44;60.33;;;34.65;;
56130;SDS011;42000;44.774;20.506;2023-03-01T06:42:10;56.40;;;32.72;;
56130;SDS011;42000;44.774;20.506;2023-03-01T06:44:36;54.22;;;31.30;;
56130;SDS011;42000;44.774;20.506;2023-03-01T06:47:03;53.58;;;32.10;;
56130;SDS011;42000;44.774;20.506;2023-03-01T06:49:29;55.75;;;32.30;;
56130;SDS011;42000;44.774;20.506;2023-03-01T06:51:56;58.05;;;32.38;;
56130;SDS011;42000;44.774;20.506;2023-03-01T06:54:22;54.55;;;29.27;;
56130;SDS011;42000;44.774;20.506;2023-03-01T06:56:48;50.35;;;27.75;;
56130;SDS011;42000;44.774;20.506;2023-03-01T06:59:15;54.50;;;28.95;;
56130;SDS011;42000;44.774;20.506;2023-03-01T07:01:41;49.63;;;28.58;;
56130;SDS011;42000;44.774;20.506;2023-03-01T07:04:07;53.45;;;31.17;;
56130;SDS011;42000;44.774;20.506;2023-03-01T07:06:33;54.03;;;31.40;;
56130;SDS011;42000;44.774;20.506;2023-03-01T07:08:59;53.50;;;30.98;;
56130;SDS011;42000;44.774;20.506;2023-03-01T07:11:25;44.75;;;25.98;;
56130;SDS011;42000;44.774;20.506;2023-03-01T07:13:51;49.47;;;28.50;;
56130;SDS011;42000;44.774;20.506;2023-03-01T07:16:17;47.63;;;27.33;;
56130;SDS011;42000;44.774;20.506;2023-03-01T07:18:45;43.05;;;25.23;;
56130;SDS011;42000;44.774;20.506;2023-03-01T07:21:12;41.78;;;22.25;;
56130;SDS011;42000;44.774;20.506;2023-03-01T07:23:38;40.67;;;22.75;;
56130;SDS011;42000;44.774;20.506;2023-03-01T07:26:04;39.22;;;22.83;;
56130;SDS011;42000;44.774;20.506;2023-03-01T07:28:30;38.05;;;21.42;;
56130;SDS011;42000;44.774;20.506;2023-03-01T07:31:01;55.70;;;26.35;;
56130;SDS011;42000;44.774;20.506;2023-03-01T07:33:27;38.38;;;22.25;;
56130;SDS011;42000;44.774;20.506;2023-03-01T07:35:57;38.03;;;21.80;;
56130;SDS011;42000;44.774;20.506;2023-03-01T07:38:23;37.63;;;20.60;;
56130;SDS011;42000;44.774;20.506;2023-03-01T07:40:49;37.38;;;20.50;;
56130;SDS011;42000;44.774;20.506;2023-03-01T07:43:15;44.63;;;24.58;;
56130;SDS011;42000;44.774;20.506;2023-03-01T07:45:42;31.48;;;18.15;;
56130;SDS011;42000;44.774;20.506;2023-03-01T07:48:08;30.38;;;17.45;;
56130;SDS011;42000;44.774;20.506;2023-03-01T07:50:34;29.30;;;17.92;;
56130;SDS011;42000;44.774;20.506;2023-03-01T07:53:00;27.60;;;16.27;;
56130;SDS011;42000;44.774;20.506;2023-03-01T07:55:27;26.15;;;15.93;;
56130;SDS011;42000;44.774;20.506;2023-03-01T07:57:53;32.53;;;17.17;;
56130;SDS011;42000;44.774;20.506;2023-03-01T08:00:19;34.03;;;17.85;;
56130;SDS011;42000;44.774;20.506;2023-03-01T08:02:45;26.13;;;15.55;;
56130;SDS011;42000;44.774;20.506;2023-03-01T08:05:11;29.08;;;15.55;;
56130;SDS011;42000;44.774;20.506;2023-03-01T08:07:37;25.48;;;14.50;;
56130;SDS011;42000;44.774;20.506;2023-03-01T08:10:04;26.00;;;15.20;;
56130;SDS011;42000;44.774;20.506;2023-03-01T08:12:30;25.58;;;14.27;;
56130;SDS011;42000;44.774;20.506;2023-03-01T08:14:56;25.77;;;14.63;;
56130;SDS011;42000;44.774;20.506;2023-03-01T08:17:22;21.25;;;12.40;;
56130;SDS011;42000;44.774;20.506;2023-03-01T08:19:48;23.13;;;14.00;;
56130;SDS011;42000;44.774;20.506;2023-03-01T08:22:14;18.02;;;11.52;;
56130;SDS011;42000;44.774;20.506;2023-03-01T08:24:40;19.85;;;11.43;;
56130;SDS011;42000;44.774;20.506;2023-03-01T08:27:06;18.40;;;11.93;;
56130;SDS011;42000;44.774;20.506;2023-03-01T08:29:32;19.83;;;11.95;;
56130;SDS011;42000;44.774;20.506;2023-03-01T08:31:59;20.23;;;12.32;;
56130;SDS011;42000;44.774;20.506;2023-03-01T08:34:25;20.10;;;10.85;;
56130;SDS011;42000;44.774;20.506;2023-03-01T08:36:51;16.77;;;9.40;;
56130;SDS011;42000;44.774;20.506;2023-03-01T08:39:18;10.90;;;6.78;;
56130;SDS011;42000;44.774;20.506;2023-03-01T08:41:45;9.30;;;5.72;;
56130;SDS011;42000;44.774;20.506;2023-03-01T08:44:12;12.93;;;6.30;;
56130;SDS011;42000;44.774;20.506;2023-03-01T08:46:38;11.27;;;5.97;;
56130;SDS011;42000;44.774;20.506;2023-03-01T08:49:12;12.18;;;6.07;;
56130;SDS011;42000;44.774;20.506;2023-03-01T08:51:39;10.60;;;6.40;;
56130;SDS011;42000;44.774;20.506;2023-03-01T08:54:06;9.90;;;5.85;;
56130;SDS011;42000;44.774;20.506;2023-03-01T08:56:33;11.50;;;6.72;;
56130;SDS011;42000;44.774;20.506;2023-03-01T08:58:59;8.68;;;5.57;;
56130;SDS011;42000;44.774;20.506;2023-03-01T09:01:25;9.45;;;5.65;;
56130;SDS011;42000;44.774;20.506;2023-03-01T09:03:51;8.57;;;5.22;;
56130;SDS011;42000;44.774;20.506;2023-03-01T09:06:18;9.40;;;6.00;;
56130;SDS011;42000;44.774;20.506;2023-03-01T09:08:45;8.52;;;4.97;;
56130;SDS011;42000;44.774;20.506;2023-03-01T09:11:13;8.52;;;5.13;;
56130;SDS011;42000;44.774;20.506;2023-03-01T09:13:40;9.00;;;4.80;;
56130;SDS011;42000;44.774;20.506;2023-03-01T09:16:07;10.07;;;5.32;;
56130;SDS011;42000;44.774;20.506;2023-03-01T09:18:34;8.75;;;4.90;;
56130;SDS011;42000;44.774;20.506;2023-03-01T09:21:03;7.00;;;4.03;;
56130;SDS011;42000;44.774;20.506;2023-03-01T09:23:33;7.15;;;4.30;;
56130;SDS011;42000;44.774;20.506;2023-03-01T09:25:59;6.75;;;4.05;;
56130;SDS011;42000;44.774;20.506;2023-03-01T09:28:26;8.32;;;5.25;;
56130;SDS011;42000;44.774;20.506;2023-03-01T09:30:52;9.43;;;5.43;;
56130;SDS011;42000;44.774;20.506;2023-03-01T09:33:18;11.63;;;5.25;;
56130;SDS011;42000;44.774;20.506;2023-03-01T09:35:44;13.40;;;5.38;;
56130;SDS011;42000;44.774;20.506;2023-03-01T09:38:12;11.63;;;6.40;;
56130;SDS011;42000;44.774;20.506;2023-03-01T09:40:43;9.95;;;6.20;;
56130;SDS011;42000;44.774;20.506;2023-03-01T09:43:18;12.98;;;6.70;;
56130;SDS011;42000;44.774;20.506;2023-03-01T09:45:45;16.73;;;7.28;;
56130;SDS011;42000;44.774;20.506;2023-03-01T09:48:16;10.98;;;6.68;;
56130;SDS011;42000;44.774;20.506;2023-03-01T09:50:42;14.95;;;7.25;;
56130;SDS011;42000;44.774;20.506;2023-03-01T09:53:18;9.60;;;6.05;;
56130;SDS011;42000;44.774;20.506;2023-03-01T10:00:49;13.23;;;6.22;;
56130;SDS011;42000;44.774;20.506;2023-03-01T10:03:28;12.60;;;6.32;;
56130;SDS011;42000;44.774;20.506;2023-03-01T10:09:05;10.63;;;5.07;;
56130;SDS011;42000;44.774;20.506;2023-03-01T10:11:32;11.43;;;6.30;;
56130;SDS011;42000;44.774;20.506;2023-03-01T10:14:03;12.35;;;6.00;;
56130;SDS011;42000;44.774;20.506;2023-03-01T10:16:40;8.95;;;5.22;;
56130;SDS011;42000;44.774;20.506;2023-03-01T10:19:09;9.25;;;4.35;;
56130;SDS011;42000;44.774;20.506;2023-03-01T10:21:38;11.30;;;6.65;;
56130;SDS011;42000;44.774;20.506;2023-03-01T10:24:10;11.85;;;6.03;;
56130;SDS011;42000;44.774;20.506;2023-03-01T10:29:09;8.00;;;4.68;;
56130;SDS011;42000;44.774;20.506;2023-03-01T10:31:43;8.73;;;4.80;;
56130;SDS011;42000;44.774;20.506;2023-03-01T10:34:11;10.45;;;5.07;;
56130;SDS011;42000;44.774;20.506;2023-03-01T10:36:38;8.73;;;4.60;;
56130;SDS011;42000;44.774;20.506;2023-03-01T10:39:11;8.85;;;4.45;;
56130;SDS011;42000;44.774;20.506;2023-03-01T10:41:37;5.90;;;4.15;;
56130;SDS011;42000;44.774;20.506;2023-03-01T10:44:09;10.23;;;4.88;;
56130;SDS011;42000;44.774;20.506;2023-03-01T10:46:58;10.63;;;5.20;;
56130;SDS011;42000;44.774;20.506;2023-03-01T10:49:26;8.38;;;4.95;;
56130;SDS011;42000;44.774;20.506;2023-03-01T10:51:52;8.27;;;5.38;;
56130;SDS011;42000;44.774;20.506;2023-03-01T10:54:24;9.32;;;6.07;;
56130;SDS011;42000;44.774;20.506;2023-03-01T10:56:51;10.73;;;5.13;;
56130;SDS011;42000;44.774;20.506;2023-03-01T10:59:29;8.57;;;4.70;;
56130;SDS011;42000;44.774;20.506;2023-03-01T11:04:40;9.60;;;4.22;;
56130;SDS011;42000;44.774;20.506;2023-03-01T11:07:21;8.52;;;4.32;;
56130;SDS011;42000;44.774;20.506;2023-03-01T11:09:47;16.55;;;6.40;;
56130;SDS011;42000;44.774;20.506;2023-03-01T11:12:14;15.27;;;7.18;;
56130;SDS011;42000;44.774;20.506;2023-03-01T11:14:47;7.55;;;4.30;;
56130;SDS011;42000;44.774;20.506;2023-03-01T11:17:20;10.05;;;4.85;;
56130;SDS011;42000;44.774;20.506;2023-03-01T11:22:36;8.98;;;5.05;;
56130;SDS011;42000;44.774;20.506;2023-03-01T11:25:07;12.00;;;5.95;;
56130;SDS011;42000;44.774;20.506;2023-03-01T11:27:38;8.43;;;3.95;;
56130;SDS011;42000;44.774;20.506;2023-03-01T11:32:35;8.93;;;4.88;;
56130;SDS011;42000;44.774;20.506;2023-03-01T11:35:13;5.72;;;3.72;;
56130;SDS011;42000;44.774;20.506;2023-03-01T11:40:13;16.30;;;4.88;;
56130;SDS011;42000;44.774;20.506;2023-03-01T11:45:10;8.48;;;4.95;;
56130;SDS011;42000;44.774;20.506;2023-03-01T11:55:19;8.00;;;4.22;;
56130;SDS011;42000;44.774;20.506;2023-03-01T11:58:07;9.23;;;4.28;;
56130;SDS011;42000;44.774;20.506;2023-03-01T12:00:43;5.75;;;4.13;;
56130;SDS011;42000;44.774;20.506;2023-03-01T12:06:00;13.80;;;6.50;;
56130;SDS011;42000;44.774;20.506;2023-03-01T12:08:49;13.25;;;5.75;;
56130;SDS011;42000;44.774;20.506;2023-03-01T12:11:23;11.05;;;5.68;;
56130;SDS011;42000;44.774;20.506;2023-03-01T12:22:16;11.55;;;5.32;;
56130;SDS011;42000;44.774;20.506;2023-03-01T12:29:42;8.15;;;5.00;;
56130;SDS011;42000;44.774;20.506;2023-03-01T12:35:01;8.82;;;5.78;;
56130;SDS011;42000;44.774;20.506;2023-03-01T12:37:33;11.23;;;6.05;;
56130;SDS011;42000;44.774;20.506;2023-03-01T12:50:16;12.60;;;5.72;;
56130;SDS011;42000;44.774;20.506;2023-03-01T12:52:53;11.02;;;5.18;;
56130;SDS011;42000;44.774;20.506;2023-03-01T12:57:48;10.38;;;6.22;;
56130;SDS011;42000;44.774;20.506;2023-03-01T13:00:27;13.20;;;5.93;;
56130;SDS011;42000;44.774;20.506;2023-03-01T13:08:23;11.25;;;5.88;;
56130;SDS011;42000;44.774;20.506;2023-03-01T13:10:57;12.68;;;6.53;;
56130;SDS011;42000;44.774;20.506;2023-03-01T13:13:25;18.98;;;8.93;;
56130;SDS011;42000;44.774;20.506;2023-03-01T13:15:51;11.93;;;7.03;;
56130;SDS011;42000;44.774;20.506;2023-03-01T13:20:55;15.82;;;8.35;;
56130;SDS011;42000;44.774;20.506;2023-03-01T13:33:47;16.58;;;7.93;;
56130;SDS011;42000;44.774;20.506;2023-03-01T13:44:12;11.20;;;6.82;;
56130;SDS011;42000;44.774;20.506;2023-03-01T13:46:39;12.63;;;7.15;;
56130;SDS011;42000;44.774;20.506;2023-03-01T13:49:09;12.48;;;7.85;;
56130;SDS011;42000;44.774;20.506;2023-03-01T13:51:37;16.20;;;7.57;;
56130;SDS011;42000;44.774;20.506;2023-03-01T13:54:03;13.32;;;7.18;;
56130;SDS011;42000;44.774;20.506;2023-03-01T13:56:33;12.27;;;7.47;;
56130;SDS011;42000;44.774;20.506;2023-03-01T13:59:02;13.80;;;7.38;;
56130;SDS011;42000;44.774;20.506;2023-03-01T14:01:31;15.57;;;7.40;;
56130;SDS011;42000;44.774;20.506;2023-03-01T14:03:58;14.98;;;8.38;;
56130;SDS011;42000;44.774;20.506;2023-03-01T14:06:25;11.55;;;7.75;;
56130;SDS011;42000;44.774;20.506;2023-03-01T14:09:37;13.98;;;7.93;;
56130;SDS011;42000;44.774;20.506;2023-03-01T14:19:18;14.10;;;8.05;;
56130;SDS011;42000;44.774;20.506;2023-03-01T14:21:46;16.33;;;8.20;;
56130;SDS011;42000;44.774;20.506;2023-03-01T14:24:22;15.50;;;7.95;;
56130;SDS011;42000;44.774;20.506;2023-03-01T14:26:49;17.02;;;9.43;;
56130;SDS011;42000;44.774;20.506;2023-03-01T14:29:33;15.32;;;8.35;;
56130;SDS011;42000;44.774;20.506;2023-03-01T14:34:59;16.17;;;8.85;;
56130;SDS011;42000;44.774;20.506;2023-03-01T14:37:26;18.77;;;9.13;;
56130;SDS011;42000;44.774;20.506;2023-03-01T14:39:53;14.07;;;8.45;;
56130;SDS011;42000;44.774;20.506;2023-03-01T14:42:21;13.57;;;7.82;;
56130;SDS011;42000;44.774;20.506;2023-03-01T14:44:49;14.13;;;8.05;;
56130;SDS011;42000;44.774;20.506;2023-03-01T14:47:18;14.95;;;8.45;;
56130;SDS011;42000;44.774;20.506;2023-03-01T14:49:47;16.42;;;9.25;;
56130;SDS011;42000;44.774;20.506;2023-03-01T14:52:21;16.08;;;9.23;;
56130;SDS011;42000;44.774;20.506;2023-03-01T14:54:49;18.75;;;9.77;;
56130;SDS011;42000;44.774;20.506;2023-03-01T14:57:17;15.77;;;8.98;;
56130;SDS011;42000;44.774;20.506;2023-03-01T14:59:43;17.05;;;7.88;;
56130;SDS011;42000;44.774;20.506;2023-03-01T15:02:17;14.70;;;7.28;;
56130;SDS011;42000;44.774;20.506;2023-03-01T15:04:48;19.73;;;9.40;;
56130;SDS011;42000;44.774;20.506;2023-03-01T15:07:15;18.13;;;9.63;;
56130;SDS011;42000;44.774;20.506;2023-03-01T15:09:41;17.52;;;9.32;;
56130;SDS011;42000;44.774;20.506;2023-03-01T15:14:52;21.25;;;11.90;;
56130;SDS011;42000;44.774;20.506;2023-03-01T15:17:36;16.80;;;9.55;;
56130;SDS011;42000;44.774;20.506;2023-03-01T15:20:06;20.92;;;11.15;;
56130;SDS011;42000;44.774;20.506;2023-03-01T15:22:40;21.88;;;10.32;;
56130;SDS011;42000;44.774;20.506;2023-03-01T15:25:20;25.08;;;11.52;;
56130;SDS011;42000;44.774;20.506;2023-03-01T15:27:47;19.58;;;10.05;;
56130;SDS011;42000;44.774;20.506;2023-03-01T15:30:18;16.95;;;9.60;;
56130;SDS011;42000;44.774;20.506;2023-03-01T15:32:45;18.98;;;10.27;;
56130;SDS011;42000;44.774;20.506;2023-03-01T15:37:55;17.65;;;9.68;;
56130;SDS011;42000;44.774;20.506;2023-03-01T15:43:03;17.90;;;10.25;;
56130;SDS011;42000;44.774;20.506;2023-03-01T15:45:30;22.45;;;10.82;;
56130;SDS011;42000;44.774;20.506;2023-03-01T15:48:02;19.08;;;9.35;;
56130;SDS011;42000;44.774;20.506;2023-03-01T15:50:31;17.38;;;9.68;;
56130;SDS011;42000;44.774;20.506;2023-03-01T15:52:58;19.27;;;9.95;;
56130;SDS011;42000;44.774;20.506;2023-03-01T15:55:26;21.27;;;11.10;;
56130;SDS011;42000;44.774;20.506;2023-03-01T15:58:15;18.52;;;10.63;;
56130;SDS011;42000;44.774;20.506;2023-03-01T16:00:41;24.00;;;11.30;;
56130;SDS011;42000;44.774;20.506;2023-03-01T16:03:08;20.35;;;10.93;;
56130;SDS011;42000;44.774;20.506;2023-03-01T16:05:36;24.10;;;12.50;;
56130;SDS011;42000;44.774;20.506;2023-03-01T16:08:03;24.45;;;12.20;;
56130;SDS011;42000;44.774;20.506;2023-03-01T16:10:30;21.40;;;11.93;;
56130;SDS011;42000;44.774;20.506;2023-03-01T16:12:57;24.17;;;12.63;;
56130;SDS011;42000;44.774;20.506;2023-03-01T16:15:25;26.88;;;12.27;;
56130;SDS011;42000;44.774;20.506;2023-03-01T16:17:52;22.50;;;11.95;;
56130;SDS011;42000;44.774;20.506;2023-03-01T16:20:18;24.67;;;13.43;;
56130;SDS011;42000;44.774;20.506;2023-03-01T16:22:45;26.92;;;13.15;;
56130;SDS011;42000;44.774;20.506;2023-03-01T16:25:11;22.33;;;12.20;;
56130;SDS011;42000;44.774;20.506;2023-03-01T16:27:38;24.38;;;13.43;;
56130;SDS011;42000;44.774;20.506;2023-03-01T16:30:05;26.48;;;14.00;;
56130;SDS011;42000;44.774;20.506;2023-03-01T16:32:31;27.85;;;14.63;;
56130;SDS011;42000;44.774;20.506;2023-03-01T16:34:57;24.65;;;13.13;;
56130;SDS011;42000;44.774;20.506;2023-03-01T16:37:23;26.98;;;12.48;;
56130;SDS011;42000;44.774;20.506;2023-03-01T16:39:49;29.77;;;13.85;;
56130;SDS011;42000;44.774;20.506;2023-03-01T16:42:17;25.85;;;12.73;;
56130;SDS011;42000;44.774;20.506;2023-03-01T16:44:43;28.83;;;12.63;;
56130;SDS011;42000;44.774;20.506;2023-03-01T16:47:09;26.17;;;13.35;;
56130;SDS011;42000;44.774;20.506;2023-03-01T16:49:35;27.85;;;13.38;;
56130;SDS011;42000;44.774;20.506;2023-03-01T16:52:01;24.63;;;13.40;;
56130;SDS011;42000;44.774;20.506;2023-03-01T16:54:27;25.80;;;14.05;;
56130;SDS011;42000;44.774;20.506;2023-03-01T16:56:53;24.95;;;13.63;;
56130;SDS011;42000;44.774;20.506;2023-03-01T16:59:19;24.75;;;13.25;;
56130;SDS011;42000;44.774;20.506;2023-03-01T17:01:45;25.63;;;13.30;;
56130;SDS011;42000;44.774;20.506;2023-03-01T17:04:12;28.70;;;14.95;;
56130;SDS011;42000;44.774;20.506;2023-03-01T17:06:38;32.65;;;15.18;;
56130;SDS011;42000;44.774;20.506;2023-03-01T17:09:04;28.85;;;15.80;;
56130;SDS011;42000;44.774;20.506;2023-03-01T17:11:30;30.38;;;15.32;;
56130;SDS011;42000;44.774;20.506;2023-03-01T17:13:56;29.67;;;15.13;;
56130;SDS011;42000;44.774;20.506;2023-03-01T17:16:22;25.98;;;14.65;;
56130;SDS011;42000;44.774;20.506;2023-03-01T17:18:49;31.48;;;16.10;;
56130;SDS011;42000;44.774;20.506;2023-03-01T17:21:15;29.63;;;15.02;;
56130;SDS011;42000;44.774;20.506;2023-03-01T17:23:42;33.42;;;15.88;;
56130;SDS011;42000;44.774;20.506;2023-03-01T17:26:08;30.63;;;15.18;;
56130;SDS011;42000;44.774;20.506;2023-03-01T17:28:35;34.65;;;16.77;;
56130;SDS011;42000;44.774;20.506;2023-03-01T17:31:02;35.80;;;17.90;;
56130;SDS011;42000;44.774;20.506;2023-03-01T17:33:29;38.58;;;17.80;;
56130;SDS011;42000;44.774;20.506;2023-03-01T17:35:55;34.42;;;17.90;;
56130;SDS011;42000;44.774;20.506;2023-03-01T17:38:21;36.83;;;18.73;;
56130;SDS011;42000;44.774;20.506;2023-03-01T17:40:47;33.53;;;17.67;;
56130;SDS011;42000;44.774;20.506;2023-03-01T17:43:14;35.90;;;17.83;;
56130;SDS011;42000;44.774;20.506;2023-03-01T17:45:41;35.78;;;18.33;;
56130;SDS011;42000;44.774;20.506;2023-03-01T17:48:11;34.90;;;16.60;;
56130;SDS011;42000;44.774;20.506;2023-03-01T17:50:38;35.17;;;18.40;;
56130;SDS011;42000;44.774;20.506;2023-03-01T17:53:07;30.98;;;16.23;;
56130;SDS011;42000;44.774;20.506;2023-03-01T17:55:38;39.08;;;17.95;;
56130;SDS011;42000;44.774;20.506;2023-03-01T17:58:04;40.20;;;19.17;;
56130;SDS011;42000;44.774;20.506;2023-03-01T18:00:31;30.85;;;16.30;;
56130;SDS011;42000;44.774;20.506;2023-03-01T18:02:57;35.40;;;17.13;;
56130;SDS011;42000;44.774;20.506;2023-03-01T18:05:23;36.83;;;18.52;;
56130;SDS011;42000;44.774;20.506;2023-03-01T18:07:50;30.48;;;16.52;;
56130;SDS011;42000;44.774;20.506;2023-03-01T18:10:16;28.70;;;16.88;;
56130;SDS011;42000;44.774;20.506;2023-03-01T18:12:42;32.25;;;16.40;;
56130;SDS011;42000;44.774;20.506;2023-03-01T18:15:09;31.40;;;17.13;;
56130;SDS011;42000;44.774;20.506;2023-03-01T18:17:35;32.40;;;16.88;;
56130;SDS011;42000;44.774;20.506;2023-03-01T18:20:02;33.22;;;17.30;;
56130;SDS011;42000;44.774;20.506;2023-03-01T18:22:28;28.70;;;15.52;;
56130;SDS011;42000;44.774;20.506;2023-03-01T18:24:54;31.30;;;16.73;;
56130;SDS011;42000;44.774;20.506;2023-03-01T18:27:20;32.78;;;15.90;;
56130;SDS011;42000;44.774;20.506;2023-03-01T18:29:46;28.55;;;15.68;;
56130;SDS011;42000;44.774;20.506;2023-03-01T18:32:12;30.35;;;16.52;;
56130;SDS011;42000;44.774;20.506;2023-03-01T18:34:38;27.85;;;15.63;;
56130;SDS011;42000;44.774;20.506;2023-03-01T18:37:04;34.45;;;17.35;;
56130;SDS011;42000;44.774;20.506;2023-03-01T18:39:30;31.00;;;16.85;;
56130;SDS011;42000;44.774;20.506;2023-03-01T18:41:56;28.45;;;16.08;;
56130;SDS011;42000;44.774;20.506;2023-03-01T18:44:22;29.88;;;16.90;;
56130;SDS011;42000;44.774;20.506;2023-03-01T18:46:48;28.27;;;15.77;;
56130;SDS011;42000;44.774;20.506;2023-03-01T18:49:15;28.98;;;15.68;;
56130;SDS011;42000;44.774;20.506;2023-03-01T18:51:41;30.08;;;16.98;;
56130;SDS011;42000;44.774;20.506;2023-03-01T18:54:09;30.33;;;16.58;;
56130;SDS011;42000;44.774;20.506;2023-03-01T18:56:35;30.38;;;16.63;;
56130;SDS011;42000;44.774;20.506;2023-03-01T18:59:01;32.28;;;16.70;;
56130;SDS011;42000;44.774;20.506;2023-03-01T19:01:29;30.23;;;16.77;;
56130;SDS011;42000;44.774;20.506;2023-03-01T19:03:56;33.08;;;17.15;;
56130;SDS011;42000;44.774;20.506;2023-03-01T19:06:22;37.45;;;16.77;;
56130;SDS011;42000;44.774;20.506;2023-03-01T19:08:49;30.13;;;16.02;;
56130;SDS011;42000;44.774;20.506;2023-03-01T19:11:17;32.05;;;16.65;;
56130;SDS011;42000;44.774;20.506;2023-03-01T19:13:43;30.13;;;16.73;;
56130;SDS011;42000;44.774;20.506;2023-03-01T19:16:14;29.00;;;16.20;;
56130;SDS011;42000;44.774;20.506;2023-03-01T19:18:41;32.33;;;17.52;;
56130;SDS011;42000;44.774;20.506;2023-03-01T19:21:08;28.35;;;17.02;;
56130;SDS011;42000;44.774;20.506;2023-03-01T19:23:34;30.10;;;16.63;;
56130;SDS011;42000;44.774;20.506;2023-03-01T19:26:06;29.00;;;16.33;;
56130;SDS011;42000;44.774;20.506;2023-03-01T19:28:33;26.67;;;15.00;;
56130;SDS011;42000;44.774;20.506;2023-03-01T19:31:02;27.45;;;15.68;;
56130;SDS011;42000;44.774;20.506;2023-03-01T19:33:29;28.80;;;15.75;;
56130;SDS011;42000;44.774;20.506;2023-03-01T19:35:55;29.05;;;15.50;;
56130;SDS011;42000;44.774;20.506;2023-03-01T19:38:21;25.83;;;15.45;;
56130;SDS011;42000;44.774;20.506;2023-03-01T19:40:47;30.33;;;16.90;;
56130;SDS011;42000;44.774;20.506;2023-03-01T19:43:13;30.65;;;17.10;;
56130;SDS011;42000;44.774;20.506;2023-03-01T19:45:39;29.80;;;16.02;;
56130;SDS011;42000;44.774;20.506;2023-03-01T19:48:05;27.20;;;15.82;;
56130;SDS011;42000;44.774;20.506;2023-03-01T19:50:31;28.27;;;16.55;;
56130;SDS011;42000;44.774;20.506;2023-03-01T19:52:57;26.70;;;15.57;;
56130;SDS011;42000;44.774;20.506;2023-03-01T19:55:24;26.30;;;14.63;;
56130;SDS011;42000;44.774;20.506;2023-03-01T19:57:50;27.30;;;14.93;;
56130;SDS011;42000;44.774;20.506;2023-03-01T20:00:16;29.65;;;16.63;;
56130;SDS011;42000;44.774;20.506;2023-03-01T20:02:42;27.50;;;15.68;;
56130;SDS011;42000;44.774;20.506;2023-03-01T20:05:08;26.08;;;14.95;;
56130;SDS011;42000;44.774;20.506;2023-03-01T20:07:34;27.65;;;15.02;;
56130;SDS011;42000;44.774;20.506;2023-03-01T20:10:01;28.90;;;15.65;;
56130;SDS011;42000;44.774;20.506;2023-03-01T20:12:27;27.42;;;15.75;;
56130;SDS011;42000;44.774;20.506;2023-03-01T20:14:53;26.77;;;14.18;;
56130;SDS011;42000;44.774;20.506;2023-03-01T20:17:21;24.73;;;14.27;;
56130;SDS011;42000;44.774;20.506;2023-03-01T20:19:47;26.35;;;14.30;;
56130;SDS011;42000;44.774;20.506;2023-03-01T20:22:13;28.25;;;15.82;;
56130;SDS011;42000;44.774;20.506;2023-03-01T20:24:40;24.45;;;13.68;;
56130;SDS011;42000;44.774;20.506;2023-03-01T20:27:06;28.48;;;14.50;;
56130;SDS011;42000;44.774;20.506;2023-03-01T20:29:32;23.63;;;13.75;;
56130;SDS011;42000;44.774;20.506;2023-03-01T20:31:58;26.77;;;14.25;;
56130;SDS011;42000;44.774;20.506;2023-03-01T20:34:24;24.50;;;13.93;;
56130;SDS011;42000;44.774;20.506;2023-03-01T20:36:50;26.52;;;14.20;;
56130;SDS011;42000;44.774;20.506;2023-03-01T20:39:16;22.85;;;12.80;;
56130;SDS011;42000;44.774;20.506;2023-03-01T20:41:42;24.40;;;13.20;;
56130;SDS011;42000;44.774;20.506;2023-03-01T20:44:08;24.63;;;13.50;;
56130;SDS011;42000;44.774;20.506;2023-03-01T20:46:35;33.58;;;16.77;;
56130;SDS011;42000;44.774;20.506;2023-03-01T20:49:01;22.50;;;12.55;;
56130;SDS011;42000;44.774;20.506;2023-03-01T20:51:28;23.02;;;12.65;;
56130;SDS011;42000;44.774;20.506;2023-03-01T20:53:54;21.35;;;11.82;;
56130;SDS011;42000;44.774;20.506;2023-03-01T20:56:20;20.58;;;11.32;;
56130;SDS011;42000;44.774;20.506;2023-03-01T20:58:47;21.15;;;11.20;;
56130;SDS011;42000;44.774;20.506;2023-03-01T21:01:18;18.70;;;11.20;;
56130;SDS011;42000;44.774;20.506;2023-03-01T21:03:45;20.67;;;11.63;;
56130;SDS011;42000;44.774;20.506;2023-03-01T21:06:12;20.30;;;11.73;;
56130;SDS011;42000;44.774;20.506;2023-03-01T21:08:38;22.13;;;10.88;;
56130;SDS011;42000;44.774;20.506;2023-03-01T21:11:05;20.50;;;11.50;;
56130;SDS011;42000;44.774;20.506;2023-03-01T21:13:31;20.88;;;11.88;;
56130;SDS011;42000;44.774;20.506;2023-03-01T21:16:01;20.27;;;11.10;;
56130;SDS011;42000;44.774;20.506;2023-03-01T21:18:29;21.15;;;11.77;;
56130;SDS011;42000;44.774;20.506;2023-03-01T21:21:02;19.38;;;11.07;;
56130;SDS011;42000;44.774;20.506;2023-03-01T21:23:29;20.40;;;11.38;;
56130;SDS011;42000;44.774;20.506;2023-03-01T21:28:30;20.40;;;10.57;;
56130;SDS011;42000;44.774;20.506;2023-03-01T21:33:29;18.48;;;9.80;;
56130;SDS011;42000;44.774;20.506;2023-03-01T21:36:02;17.88;;;9.88;;
56130;SDS011;42000;44.774;20.506;2023-03-01T21:38:29;17.58;;;10.30;;
56130;SDS011;42000;44.774;20.506;2023-03-01T21:40:56;16.75;;;9.85;;
56130;SDS011;42000;44.774;20.506;2023-03-01T21:43:22;21.88;;;11.48;;
56130;SDS011;42000;44.774;20.506;2023-03-01T21:45:48;20.20;;;10.75;;
56130;SDS011;42000;44.774;20.506;2023-03-01T21:48:14;18.38;;;9.85;;
56130;SDS011;42000;44.774;20.506;2023-03-01T21:50:41;21.55;;;10.63;;
56130;SDS011;42000;44.774;20.506;2023-03-01T21:53:07;19.80;;;10.30;;
56130;SDS011;42000;44.774;20.506;2023-03-01T21:55:33;18.15;;;9.85;;
56130;SDS011;42000;44.774;20.506;2023-03-01T21:57:59;18.83;;;10.20;;
56130;SDS011;42000;44.774;20.506;2023-03-01T22:00:25;17.70;;;9.73;;
56130;SDS011;42000;44.774;20.506;2023-03-01T22:02:52;18.50;;;9.55;;
56130;SDS011;42000;44.774;20.506;2023-03-01T22:05:22;17.05;;;9.32;;